createdAt,value
2023-03-04T00:00:09.697Z,13.90
2023-03-04T00:02:39.768Z,16.13
2023-03-04T00:05:07.383Z,14.77
2023-03-04T00:07:34.357Z,22.63
2023-03-04T00:10:01.369Z,19.27
2023-03-04T00:12:28.246Z,14.95
2023-03-04T00:14:55.355Z,12.82
2023-03-04T00:17:22.354Z,17.95
2023-03-04T00:19:49.242Z,17.65
2023-03-04T00:22:16.377Z,17.73
2023-03-04T00:24:43.287Z,23.15
2023-03-04T00:27:10.235Z,17.40
2023-03-04T00:29:37.120Z,19.35
2023-03-04T00:32:04.509Z,12.35
2023-03-04T00:34:32.893Z,10.40
2023-03-04T00:37:01.532Z,20.15
2023-03-04T00:39:28.675Z,14.10
2023-03-04T00:41:56.076Z,17.98
2023-03-04T00:44:23.026Z,15.45
2023-03-04T00:46:49.960Z,16.52
2023-03-04T00:49:16.876Z,16.13
2023-03-04T00:51:43.857Z,14.27
2023-03-04T00:54:10.828Z,15.65
2023-03-04T00:56:37.784Z,18.27
2023-03-04T00:59:04.972Z,16.75
2023-03-04T01:01:32.543Z,14.98
2023-03-04T01:03:59.452Z,16.20
2023-03-04T01:06:27.151Z,11.82
2023-03-04T01:08:54.100Z,17.63
2023-03-04T01:11:21.003Z,17.83
2023-03-04T01:13:48.585Z,14.30
2023-03-04T01:16:15.796Z,16.65
2023-03-04T01:18:42.808Z,16.52
2023-03-04T01:21:09.778Z,21.63
2023-03-04T01:23:36.651Z,18.38
2023-03-04T01:26:03.889Z,13.13
2023-03-04T01:28:35.880Z,12.20
2023-03-04T01:31:04.382Z,14.38
2023-03-04T01:33:31.610Z,19.25
2023-03-04T01:35:58.658Z,13.77
2023-03-04T01:38:26.017Z,18.77
2023-03-04T01:40:54.153Z,15.43
2023-03-04T01:43:26.228Z,20.15
2023-03-04T01:45:55.308Z,12.63
2023-03-04T01:48:31.657Z,15.65
2023-03-04T01:51:04.573Z,18.75
2023-03-04T01:53:33.127Z,12.48
2023-03-04T01:56:38.059Z,16.55
2023-03-04T01:59:26.984Z,13.57
2023-03-04T02:01:58.980Z,16.15
2023-03-04T02:04:33.062Z,12.90
2023-03-04T02:07:02.614Z,14.55
2023-03-04T02:09:31.974Z,15.02
2023-03-04T02:12:01.324Z,13.65
2023-03-04T02:14:28.638Z,15.00
2023-03-04T02:16:55.568Z,15.40
2023-03-04T02:19:40.737Z,9.52
2023-03-04T02:22:08.113Z,12.43
2023-03-04T02:25:03.536Z,14.10
2023-03-04T02:27:30.676Z,13.95
2023-03-04T02:29:57.668Z,18.85
2023-03-04T02:32:24.792Z,11.73
2023-03-04T02:34:52.123Z,18.95
2023-03-04T02:37:21.863Z,13.20
2023-03-04T02:39:51.802Z,13.80
2023-03-04T02:42:18.926Z,18.17
2023-03-04T02:44:50.400Z,15.32
2023-03-04T02:47:19.651Z,11.73
2023-03-04T02:49:48.063Z,13.68
2023-03-04T02:52:21.997Z,10.05
2023-03-04T02:54:49.028Z,14.68
2023-03-04T02:57:17.208Z,12.85
2023-03-04T02:59:47.885Z,10.40
2023-03-04T03:02:19.943Z,13.02
2023-03-04T03:04:46.943Z,15.18
2023-03-04T03:07:16.502Z,10.45
2023-03-04T03:09:43.774Z,11.63
2023-03-04T03:12:10.995Z,12.25
2023-03-04T03:14:38.179Z,12.90
2023-03-04T03:17:06.558Z,10.10
2023-03-04T03:19:33.455Z,13.45
2023-03-04T03:22:03.296Z,12.40
2023-03-04T03:24:30.261Z,14.90
2023-03-04T03:26:57.211Z,13.30
2023-03-04T03:29:24.651Z,9.50
2023-03-04T03:31:51.712Z,14.80
2023-03-04T03:34:20.799Z,14.70
2023-03-04T03:36:48.738Z,17.45
2023-03-04T03:39:15.854Z,17.13
2023-03-04T03:41:42.871Z,16.70
2023-03-04T03:44:09.827Z,15.05
2023-03-04T03:46:36.734Z,13.20
2023-03-04T03:49:03.670Z,9.80
2023-03-04T03:51:30.577Z,11.95
2023-03-04T03:53:57.482Z,12.98
2023-03-04T03:56:24.418Z,8.75
2023-03-04T03:58:51.425Z,13.45
2023-03-04T04:01:18.346Z,15.43
2023-03-04T04:03:45.234Z,13.90
2023-03-04T04:06:12.200Z,15.52
2023-03-04T04:08:39.199Z,12.30
2023-03-04T04:11:06.157Z,10.40
2023-03-04T04:13:33.135Z,8.82
2023-03-04T04:16:00.011Z,13.23
2023-03-04T04:18:27.000Z,16.98
2023-03-04T04:20:54.252Z,10.63
2023-03-04T04:23:21.531Z,8.90
2023-03-04T04:25:48.490Z,14.85
2023-03-04T04:28:15.425Z,13.45
2023-03-04T04:30:42.703Z,12.20
2023-03-04T04:33:10.540Z,13.60
2023-03-04T04:35:40.838Z,15.52
2023-03-04T04:38:09.592Z,12.57
2023-03-04T04:40:37.160Z,12.70
2023-03-04T04:43:04.319Z,16.95
2023-03-04T04:45:31.274Z,10.43
2023-03-04T04:47:58.225Z,13.10
2023-03-04T04:50:25.701Z,11.82
2023-03-04T04:52:52.834Z,15.48
2023-03-04T04:55:19.966Z,19.42
2023-03-04T04:57:46.887Z,15.07
2023-03-04T05:00:14.677Z,10.55
2023-03-04T05:02:41.580Z,12.68
2023-03-04T05:05:08.991Z,12.40
2023-03-04T05:07:36.524Z,14.48
2023-03-04T05:10:04.630Z,8.55
2023-03-04T05:12:31.548Z,11.48
2023-03-04T05:14:58.576Z,20.73
2023-03-04T05:17:25.671Z,10.88
2023-03-04T05:19:52.550Z,10.35
2023-03-04T05:22:19.446Z,7.95
2023-03-04T05:24:46.377Z,8.23
2023-03-04T05:27:13.311Z,11.82
2023-03-04T05:29:40.258Z,8.73
2023-03-04T05:32:07.177Z,13.95
2023-03-04T05:34:34.090Z,13.15
2023-03-04T05:37:00.933Z,13.02
2023-03-04T05:39:32.276Z,11.65
2023-03-04T05:41:59.181Z,12.07
2023-03-04T05:44:26.094Z,9.43
2023-03-04T05:46:52.930Z,9.45
2023-03-04T05:49:20.166Z,9.43
2023-03-04T05:51:47.150Z,15.02
2023-03-04T05:54:14.196Z,10.07
2023-03-04T05:56:41.244Z,10.02
2023-03-04T05:59:08.222Z,12.85
2023-03-04T06:01:35.473Z,10.35
2023-03-04T06:04:02.541Z,10.05
2023-03-04T06:06:29.551Z,13.18
2023-03-04T06:08:56.491Z,9.23
2023-03-04T06:11:23.489Z,9.40
2023-03-04T06:13:50.410Z,9.00
2023-03-04T06:16:17.541Z,8.48
2023-03-04T06:18:44.593Z,13.20
2023-03-04T06:21:11.727Z,13.20
2023-03-04T06:23:38.777Z,15.40
2023-03-04T06:26:09.288Z,11.55
2023-03-04T06:28:36.195Z,10.23
2023-03-04T06:31:03.359Z,12.00
2023-03-04T06:33:30.787Z,9.40
2023-03-04T06:35:58.314Z,11.90
2023-03-04T06:38:26.583Z,11.32
2023-03-04T06:40:57.122Z,10.45
2023-03-04T06:43:24.473Z,10.15
2023-03-04T06:45:51.492Z,12.82
2023-03-04T06:48:18.424Z,11.95
2023-03-04T06:50:45.468Z,10.00
2023-03-04T06:53:12.385Z,8.27
2023-03-04T06:55:42.642Z,9.00
2023-03-04T06:58:10.704Z,14.30
2023-03-04T07:00:39.609Z,13.43
2023-03-04T07:03:07.276Z,12.93
2023-03-04T07:05:34.817Z,11.20
2023-03-04T07:08:02.021Z,10.38
2023-03-04T07:10:29.007Z,11.13
2023-03-04T07:12:57.029Z,15.20
2023-03-04T07:15:23.950Z,11.10
2023-03-04T07:17:50.951Z,15.20
2023-03-04T07:20:18.075Z,8.75
2023-03-04T07:22:45.028Z,11.35
2023-03-04T07:25:12.349Z,8.73
2023-03-04T07:27:40.848Z,9.55
2023-03-04T07:30:09.150Z,12.90
2023-03-04T07:32:36.149Z,11.00
2023-03-04T07:35:03.924Z,9.65
2023-03-04T07:37:31.059Z,10.63
2023-03-04T07:39:58.080Z,14.20
2023-03-04T07:42:25.124Z,9.23
2023-03-04T07:45:01.614Z,6.78
2023-03-04T07:47:28.728Z,10.15
2023-03-04T07:49:56.279Z,8.50
2023-03-04T07:52:23.501Z,7.72
2023-03-04T07:54:50.667Z,8.48
2023-03-04T07:57:17.809Z,9.85
2023-03-04T07:59:44.905Z,10.57
2023-03-04T08:02:12.067Z,12.52
2023-03-04T08:04:40.063Z,7.88
2023-03-04T08:07:08.065Z,7.55
2023-03-04T08:09:35.244Z,4.22
2023-03-04T08:12:02.405Z,11.73
2023-03-04T08:14:29.296Z,7.35
2023-03-04T08:16:56.292Z,10.48
2023-03-04T08:19:25.601Z,12.15
2023-03-04T08:21:53.463Z,12.35
2023-03-04T08:24:21.376Z,9.43
2023-03-04T08:26:50.496Z,5.75
2023-03-04T08:29:22.255Z,12.00
2023-03-04T08:31:50.848Z,8.38
2023-03-04T08:34:25.795Z,9.85
2023-03-04T08:36:53.070Z,13.93
2023-03-04T08:39:21.086Z,10.65
2023-03-04T08:41:49.052Z,7.72
2023-03-04T08:44:16.141Z,11.07
2023-03-04T08:46:43.840Z,15.52
2023-03-04T08:49:13.032Z,9.48
2023-03-04T08:51:40.124Z,8.45
2023-03-04T08:54:07.059Z,7.15
2023-03-04T08:56:33.959Z,10.57
2023-03-04T08:59:00.842Z,7.38
2023-03-04T09:01:27.936Z,8.57
2023-03-04T09:03:55.085Z,7.93
2023-03-04T09:06:22.017Z,5.53
2023-03-04T09:08:48.966Z,6.88
2023-03-04T09:11:16.358Z,9.20
2023-03-04T09:13:43.481Z,9.07
2023-03-04T09:16:14.987Z,7.93
2023-03-04T09:18:43.029Z,15.60
2023-03-04T09:21:11.285Z,6.93
2023-03-04T09:23:38.886Z,9.10
2023-03-04T09:26:26.221Z,10.25
2023-03-04T09:28:57.386Z,5.18
2023-03-04T09:31:26.746Z,8.25
2023-03-04T09:33:56.011Z,7.13
2023-03-04T09:36:23.425Z,6.75
2023-03-04T09:38:51.115Z,10.07
2023-03-04T09:41:26.919Z,6.28
2023-03-04T09:43:55.681Z,6.50
2023-03-04T09:46:38.620Z,6.22
2023-03-04T09:49:07.419Z,4.90
2023-03-04T09:51:59.432Z,8.82
2023-03-04T09:55:05.966Z,7.40
2023-03-04T09:57:58.664Z,5.28
2023-03-04T10:00:44.931Z,7.43
2023-03-04T10:03:40.406Z,9.00
2023-03-04T10:06:20.974Z,5.40
2023-03-04T10:09:02.888Z,7.45
2023-03-04T10:11:42.811Z,8.70
2023-03-04T10:14:21.544Z,6.00
2023-03-04T10:17:12.212Z,3.60
2023-03-04T10:19:57.453Z,3.35
2023-03-04T10:22:41.729Z,4.65
2023-03-04T10:25:20.961Z,6.60
2023-03-04T10:28:07.130Z,11.18
2023-03-04T10:30:49.615Z,5.28
2023-03-04T10:33:26.902Z,4.68
2023-03-04T10:36:05.496Z,5.38
2023-03-04T10:38:41.626Z,7.45
2023-03-04T10:41:20.970Z,6.28
2023-03-04T10:44:03.187Z,3.83
2023-03-04T10:46:32.401Z,12.02
2023-03-04T10:48:59.929Z,7.30
2023-03-04T10:51:29.681Z,9.07
2023-03-04T10:54:26.415Z,6.53
2023-03-04T10:56:59.031Z,3.47
2023-03-04T10:59:36.631Z,4.95
2023-03-04T11:02:27.345Z,3.55
2023-03-04T11:04:57.338Z,8.50
2023-03-04T11:07:27.301Z,2.20
2023-03-04T11:09:57.333Z,3.45
2023-03-04T11:12:34.804Z,2.95
2023-03-04T11:15:03.958Z,9.15
2023-03-04T11:17:47.076Z,8.43
2023-03-04T11:20:34.040Z,5.10
2023-03-04T11:23:14.616Z,4.20
2023-03-04T11:25:48.481Z,5.10
2023-03-04T11:28:37.690Z,3.70
2023-03-04T11:31:16.294Z,4.53
2023-03-04T11:34:28.096Z,3.10
2023-03-04T11:37:16.058Z,4.00
2023-03-04T11:39:54.763Z,5.13
2023-03-04T11:42:41.230Z,2.30
2023-03-04T11:45:29.135Z,2.50
2023-03-04T11:48:15.036Z,3.42
2023-03-04T11:54:10.351Z,4.47
2023-03-04T11:56:48.765Z,3.60
2023-03-04T11:59:40.135Z,3.42
2023-03-04T12:02:33.285Z,4.55
2023-03-04T12:05:40.306Z,4.43
2023-03-04T12:08:43.041Z,5.82
2023-03-04T12:11:40.306Z,3.95
2023-03-04T12:14:34.854Z,4.88
2023-03-04T12:17:17.234Z,2.35
2023-03-04T12:20:02.798Z,2.10
2023-03-04T12:22:54.834Z,2.83
2023-03-04T12:25:37.032Z,2.72
2023-03-04T12:28:52.047Z,6.13
2023-03-04T12:31:40.875Z,3.30
2023-03-04T12:34:30.123Z,1.83
2023-03-04T12:37:47.850Z,2.47
2023-03-04T12:40:35.215Z,2.85
2023-03-04T12:43:21.983Z,1.77
2023-03-04T12:46:06.912Z,2.70
2023-03-04T12:48:52.795Z,2.35
2023-03-04T12:51:35.216Z,5.40
2023-03-04T12:54:31.173Z,3.55
2023-03-04T12:57:12.724Z,1.95
2023-03-04T12:59:49.461Z,2.67
2023-03-04T13:02:54.864Z,2.60
2023-03-04T13:08:56.099Z,3.17
2023-03-04T13:11:25.944Z,2.90
2023-03-04T13:14:27.487Z,2.92
2023-03-04T13:17:02.452Z,2.90
2023-03-04T13:19:56.294Z,2.20
2023-03-04T13:22:38.619Z,1.85
2023-03-04T13:25:31.935Z,1.55
2023-03-04T13:28:13.939Z,3.60
2023-03-04T13:31:12.171Z,3.17
2023-03-04T13:33:46.586Z,3.58
2023-03-04T13:39:17.130Z,1.25
2023-03-04T13:41:56.847Z,1.63
2023-03-04T13:44:45.804Z,5.22
2023-03-04T13:47:22.958Z,2.55
2023-03-04T13:49:51.267Z,2.55
2023-03-04T13:52:45.372Z,2.28
2023-03-04T13:55:34.731Z,0.77
2023-03-04T13:58:18.749Z,2.47
2023-03-04T14:00:54.140Z,1.30
2023-03-04T14:03:28.243Z,3.30
2023-03-04T14:06:24.606Z,4.85
2023-03-04T14:08:55.277Z,2.42
2023-03-04T14:11:43.168Z,3.25
2023-03-04T14:14:18.527Z,3.17
2023-03-04T14:16:53.197Z,3.53
2023-03-04T14:19:28.543Z,2.50
2023-03-04T14:21:57.476Z,5.00
2023-03-04T14:24:25.073Z,4.43
2023-03-04T14:27:12.187Z,3.78
2023-03-04T14:29:39.422Z,5.47
2023-03-04T14:32:07.822Z,6.03
2023-03-04T14:34:39.646Z,5.60
2023-03-04T14:37:27.381Z,5.97
2023-03-04T14:39:58.813Z,4.03
2023-03-04T14:42:42.736Z,7.28
2023-03-04T14:45:17.008Z,3.83
2023-03-04T14:47:48.459Z,5.75
2023-03-04T14:50:20.812Z,5.70
2023-03-04T14:52:52.056Z,5.13
2023-03-04T14:55:27.179Z,5.28
2023-03-04T14:58:06.502Z,10.02
2023-03-04T15:00:37.668Z,9.20
2023-03-04T15:03:25.131Z,8.20
2023-03-04T15:05:55.147Z,6.80
2023-03-04T15:08:27.378Z,6.47
2023-03-04T15:11:04.443Z,6.43
2023-03-04T15:13:46.648Z,3.38
2023-03-04T15:16:16.902Z,5.45
2023-03-04T15:19:06.002Z,4.25
2023-03-04T15:21:36.909Z,5.85
2023-03-04T15:24:07.255Z,6.50
2023-03-04T15:26:41.498Z,3.97
2023-03-04T15:29:20.859Z,4.32
2023-03-04T15:31:48.978Z,4.55
2023-03-04T15:34:20.985Z,4.30
2023-03-04T15:36:51.562Z,3.35
2023-03-04T15:39:21.682Z,3.13
2023-03-04T15:41:50.515Z,4.72
2023-03-04T15:44:17.637Z,5.07
2023-03-04T15:46:44.952Z,7.78
2023-03-04T15:49:11.987Z,3.28
2023-03-04T15:51:39.911Z,6.68
2023-03-04T15:54:14.000Z,6.90
2023-03-04T15:56:41.172Z,6.80
2023-03-04T15:59:15.842Z,6.65
2023-03-04T16:01:43.707Z,4.82
2023-03-04T16:04:19.732Z,7.60
2023-03-04T16:06:51.456Z,3.42
2023-03-04T16:09:21.015Z,4.55
2023-03-04T16:11:48.127Z,3.85
2023-03-04T16:14:20.014Z,4.45
2023-03-04T16:16:48.005Z,3.60
2023-03-04T16:19:15.084Z,3.40
2023-03-04T16:21:42.446Z,2.90
2023-03-04T16:24:18.971Z,5.13
2023-03-04T16:26:46.718Z,3.28
2023-03-04T16:29:15.232Z,5.47
2023-03-04T16:31:42.347Z,2.63
2023-03-04T16:34:09.489Z,4.25
2023-03-04T16:36:36.498Z,2.65
2023-03-04T16:39:16.444Z,2.28
2023-03-04T16:41:43.498Z,2.13
2023-03-04T16:44:14.095Z,3.97
2023-03-04T16:46:46.430Z,2.08
2023-03-04T16:49:21.223Z,4.55
2023-03-04T16:51:51.044Z,4.22
2023-03-04T16:54:30.304Z,2.78
2023-03-04T16:56:59.209Z,3.78
2023-03-04T16:59:28.321Z,3.13
2023-03-04T17:01:55.928Z,5.97
2023-03-04T17:04:23.201Z,6.00
2023-03-04T17:06:50.270Z,6.60
2023-03-04T17:09:17.365Z,5.65
2023-03-04T17:11:44.313Z,7.00
2023-03-04T17:14:11.305Z,7.32
2023-03-04T17:16:38.392Z,6.53
2023-03-04T17:19:05.410Z,7.65
2023-03-04T17:21:33.765Z,4.20
2023-03-04T17:24:00.845Z,7.78
2023-03-04T17:26:27.898Z,5.45
2023-03-04T17:28:54.998Z,6.75
2023-03-04T17:31:22.266Z,6.38
2023-03-04T17:33:49.843Z,7.13
2023-03-04T17:36:19.232Z,7.72
2023-03-04T17:38:47.245Z,5.90
2023-03-04T17:41:18.114Z,5.45
2023-03-04T17:43:48.783Z,7.57
2023-03-04T17:46:23.160Z,8.73
2023-03-04T17:48:55.363Z,7.32
2023-03-04T17:51:35.060Z,6.63
2023-03-04T17:54:05.792Z,7.07
2023-03-04T17:56:35.013Z,11.88
2023-03-04T17:59:07.836Z,5.60
2023-03-04T18:01:36.066Z,11.50
2023-03-04T18:04:03.513Z,7.70
2023-03-04T18:06:30.551Z,4.72
2023-03-04T18:08:57.586Z,9.23
2023-03-04T18:11:27.085Z,7.13
2023-03-04T18:13:56.484Z,5.50
2023-03-04T18:16:27.298Z,8.45
2023-03-04T18:19:04.483Z,13.88
2023-03-04T18:21:33.612Z,7.63
2023-03-04T18:24:03.409Z,7.15
2023-03-04T18:26:31.484Z,5.93
2023-03-04T18:28:59.173Z,7.28
2023-03-04T18:31:32.927Z,8.10
2023-03-04T18:34:04.974Z,6.63
2023-03-04T18:36:35.169Z,5.47
2023-03-04T18:39:05.410Z,11.27
2023-03-04T18:41:34.157Z,9.75
2023-03-04T18:44:02.143Z,8.82
2023-03-04T18:46:42.829Z,15.07
2023-03-04T18:49:13.261Z,11.45
2023-03-04T18:51:41.452Z,10.02
2023-03-04T18:54:09.701Z,12.05
2023-03-04T18:56:49.171Z,8.60
2023-03-04T18:59:27.286Z,7.43
2023-03-04T19:01:56.154Z,9.95
2023-03-04T19:04:27.750Z,5.97
2023-03-04T19:06:55.669Z,9.13
2023-03-04T19:09:22.681Z,8.65
2023-03-04T19:11:49.622Z,6.65
2023-03-04T19:14:16.669Z,8.75
2023-03-04T19:16:43.697Z,13.32
2023-03-04T19:19:10.814Z,11.55
2023-03-04T19:21:38.648Z,11.65
2023-03-04T19:24:06.431Z,5.70
2023-03-04T19:26:34.232Z,7.60
2023-03-04T19:29:01.394Z,7.60
2023-03-04T19:31:28.397Z,5.78
2023-03-04T19:33:55.535Z,5.28
2023-03-04T19:36:22.534Z,10.30
2023-03-04T19:38:49.523Z,9.30
2023-03-04T19:41:17.414Z,7.38
2023-03-04T19:43:45.964Z,6.75
2023-03-04T19:46:14.106Z,8.40
2023-03-04T19:48:42.109Z,9.43
2023-03-04T19:51:20.207Z,10.38
2023-03-04T19:53:47.915Z,8.45
2023-03-04T19:56:15.048Z,10.15
2023-03-04T19:58:42.484Z,9.27
2023-03-04T20:01:30.149Z,9.45
2023-03-04T20:04:04.312Z,11.13
2023-03-04T20:06:31.866Z,8.52
2023-03-04T20:09:00.549Z,8.45
2023-03-04T20:11:30.360Z,7.40
2023-03-04T20:13:58.613Z,7.45
2023-03-04T20:16:26.456Z,9.05
2023-03-04T20:18:55.137Z,8.25
2023-03-04T20:21:22.063Z,11.82
2023-03-04T20:23:49.308Z,11.25
2023-03-04T20:26:18.378Z,11.52
2023-03-04T20:28:51.924Z,11.90
2023-03-04T20:31:27.896Z,11.77
2023-03-04T20:33:56.096Z,12.55
2023-03-04T20:36:26.580Z,11.60
2023-03-04T20:39:02.114Z,12.73
2023-03-04T20:41:32.055Z,10.57
2023-03-04T20:43:59.086Z,14.50
2023-03-04T20:46:41.196Z,10.07
2023-03-04T20:49:22.203Z,12.20
2023-03-04T20:51:51.315Z,13.60
2023-03-04T20:54:18.659Z,11.30
2023-03-04T20:56:46.311Z,9.82
2023-03-04T20:59:13.899Z,11.13
2023-03-04T21:01:44.727Z,13.43
2023-03-04T21:04:11.990Z,7.63
2023-03-04T21:06:41.213Z,13.80
2023-03-04T21:09:13.034Z,16.10
2023-03-04T21:11:40.948Z,11.10
2023-03-04T21:14:15.457Z,11.63
2023-03-04T21:19:17.032Z,13.80
2023-03-04T21:21:45.839Z,10.02
2023-03-04T21:24:17.703Z,13.77
2023-03-04T21:26:45.448Z,12.18
2023-03-04T21:29:13.166Z,17.02
2023-03-04T21:31:44.965Z,11.90
2023-03-04T21:34:28.901Z,12.35
2023-03-04T21:36:56.138Z,10.27
2023-03-04T21:39:25.563Z,9.55
2023-03-04T21:41:52.999Z,10.57
2023-03-04T21:44:28.186Z,10.38
2023-03-04T21:46:59.890Z,11.30
2023-03-04T21:49:27.903Z,10.40
2023-03-04T21:51:55.267Z,13.65
2023-03-04T21:54:23.021Z,13.07
2023-03-04T21:56:50.349Z,15.25
2023-03-04T21:59:17.593Z,11.55
2023-03-04T22:01:47.409Z,13.25
2023-03-04T22:04:14.472Z,9.50
2023-03-04T22:06:41.626Z,12.43
2023-03-04T22:09:09.593Z,10.75
2023-03-04T22:11:36.666Z,12.70
2023-03-04T22:14:03.782Z,16.20
2023-03-04T22:16:35.415Z,12.43
2023-03-04T22:19:04.634Z,11.57
2023-03-04T22:21:31.680Z,14.00
2023-03-04T22:23:58.979Z,11.65
2023-03-04T22:26:32.562Z,12.65
2023-03-04T22:29:01.574Z,13.70
2023-03-04T22:31:33.078Z,9.98
2023-03-04T22:34:07.980Z,11.00
2023-03-04T22:36:40.118Z,7.70
2023-03-04T22:39:11.528Z,11.35
2023-03-04T22:41:38.872Z,12.82
2023-03-04T22:44:06.434Z,11.90
2023-03-04T22:46:38.150Z,10.95
2023-03-04T22:49:09.969Z,12.52
2023-03-04T22:51:38.413Z,15.10
2023-03-04T22:54:05.475Z,10.10
2023-03-04T22:56:33.139Z,10.38
2023-03-04T22:59:00.275Z,11.57
2023-03-04T23:01:27.328Z,14.80
2023-03-04T23:03:54.367Z,13.65
2023-03-04T23:06:25.218Z,16.20
2023-03-04T23:08:52.925Z,10.23
2023-03-04T23:11:25.400Z,11.35
2023-03-04T23:13:53.612Z,12.65
2023-03-04T23:16:27.846Z,11.85
2023-03-04T23:18:55.601Z,10.45
2023-03-04T23:21:25.713Z,11.32
2023-03-04T23:23:53.224Z,14.38
2023-03-04T23:26:26.249Z,14.13
2023-03-04T23:28:56.798Z,14.38
2023-03-04T23:31:25.564Z,12.65
2023-03-04T23:33:57.182Z,12.93
2023-03-04T23:36:28.268Z,9.05
2023-03-04T23:38:55.679Z,9.48
2023-03-04T23:41:26.527Z,9.75
2023-03-04T23:43:56.150Z,12.95
2023-03-04T23:46:24.821Z,16.02
2023-03-04T23:48:53.806Z,12.43
2023-03-04T23:51:26.641Z,11.15
2023-03-04T23:53:54.874Z,11.65
2023-03-04T23:56:29.005Z,12.95
2023-03-04T23:58:58.075Z,17.67
